Time;durP1;ratioP1;P1;durP2;ratioP2;P2;SDS_P1;SDS_P2;PMS_P1;PMS_P2;Temp;Humidity;BMP_temperature;BMP_pressure;BME280_temperature;BME280_humidity;BME280_pressure;Samples;Min_cycle;Max_cycle;Signal;HPM_P1;HPM_P2
2023/01/19 00:00:54;;;;;;;11.9;5.3;;;;;;;2.1;83;97420;;;;
2023/01/19 00:10:54;;;;;;;17.7;10.1;;;;;;;2;83;97420;;;;
2023/01/19 00:21:54;;;;;;;17.7;10.1;;;;;;;1.8;83.6;97430;;;;
2023/01/19 00:32:54;;;;;;;17.7;10.1;;;;;;;1.9;83.9;97430;;;;
2023/01/19 00:42:54;;;;;;;19.5;11.9;;;;;;;1.9;83.7;97440;;;;
2023/01/19 00:53:54;;;;;;;19.5;11.9;;;;;;;1.8;84.2;97430;;;;
2023/01/19 01:03:54;;;;;;;19.5;11.9;;;;;;;1.9;84.4;97430;;;;
2023/01/19 01:13:54;;;;;;;19;11.5;;;;;;;2;84.4;97420;;;;
2023/01/19 01:23:54;;;;;;;19;11.5;;;;;;;2;84.4;97420;;;;
2023/01/19 01:34:54;;;;;;;19;11.5;;;;;;;2.1;84.4;97410;;;;
2023/01/19 01:44:54;;;;;;;16.1;9.7;;;;;;;2.2;84.2;97400;;;;
2023/01/19 01:55:54;;;;;;;16.1;9.7;;;;;;;2;84.3;97390;;;;
2023/01/19 02:05:56;;;;;;;16.1;9.7;;;;;;;2;84.4;97400;;;;
2023/01/19 02:16:54;;;;;;;17.6;11;;;;;;;1.9;84.9;97390;;;;
2023/01/19 02:26:54;;;;;;;17.6;11;;;;;;;2;85;97380;;;;
2023/01/19 02:36:54;;;;;;;17.6;11;;;;;;;2.1;85;97380;;;;
2023/01/19 02:47:54;;;;;;;14.5;9.3;;;;;;;2.2;84.9;97390;;;;
2023/01/19 02:58:54;;;;;;;14.5;9.3;;;;;;;2.3;84.6;97410;;;;
2023/01/19 03:08:54;;;;;;;20.2;11.6;;;;;;;2.4;84.6;97410;;;;
2023/01/19 03:18:54;;;;;;;20.2;11.6;;;;;;;2.3;84.5;97410;;;;
2023/01/19 03:28:54;;;;;;;20.2;11.6;;;;;;;2.2;84.5;97410;;;;
2023/01/19 03:39:55;;;;;;;23.6;14.6;;;;;;;2.4;84.8;97420;;;;
2023/01/19 03:50:54;;;;;;;23.6;14.6;;;;;;;2.2;84.8;97440;;;;
2023/01/19 04:00:54;;;;;;;23.6;14.6;;;;;;;2.1;85.1;97430;;;;
2023/01/19 04:11:56;;;;;;;25;14.2;;;;;;;2.2;85.4;97440;;;;
2023/01/19 04:22:55;;;;;;;25;14.2;;;;;;;2.3;85.4;97400;;;;
2023/01/19 04:32:55;;;;;;;25;14.2;;;;;;;2.3;85.3;97390;;;;
2023/01/19 04:43:54;;;;;;;18.1;10.7;;;;;;;2.4;85.4;97420;;;;
2023/01/19 04:54:55;;;;;;;18.1;10.7;;;;;;;2.6;84.9;97440;;;;
2023/01/19 05:05:54;;;;;;;18.1;10.7;;;;;;;2.7;84.5;97450;;;;
2023/01/19 05:15:54;;;;;;;12.6;7.1;;;;;;;2.7;84.5;97450;;;;
2023/01/19 05:25:55;;;;;;;12.6;7.1;;;;;;;2.4;84.9;97470;;;;
2023/01/19 05:36:54;;;;;;;12.6;7.1;;;;;;;2.4;85.4;97470;;;;
2023/01/19 05:47:54;;;;;;;22.4;12.3;;;;;;;2.3;85.5;97480;;;;
2023/01/19 05:58:54;;;;;;;22.4;12.3;;;;;;;2.3;85.9;97490;;;;
2023/01/19 06:09:54;;;;;;;19.3;12;;;;;;;2.4;85.9;97500;;;;
2023/01/19 06:19:54;;;;;;;19.3;12;;;;;;;2.4;86.1;97500;;;;
2023/01/19 06:30:54;;;;;;;19.3;12;;;;;;;2.3;86.3;97540;;;;
2023/01/19 06:40:54;;;;;;;17.3;10.8;;;;;;;2.4;86.4;97570;;;;
2023/01/19 06:50:54;;;;;;;17.3;10.8;;;;;;;2.5;86.5;97580;;;;
2023/01/19 07:00:55;;;;;;;17.3;10.8;;;;;;;2.6;86.3;97600;;;;
2023/01/19 07:10:55;;;;;;;16.1;8.8;;;;;;;2.5;85.8;97610;;;;
2023/01/19 07:21:54;;;;;;;16.1;8.8;;;;;;;2.6;85.9;97600;;;;
2023/01/19 07:32:55;;;;;;;16.1;8.8;;;;;;;2.6;85.6;97590;;;;
2023/01/19 07:42:54;;;;;;;17.2;11.7;;;;;;;2.6;85.6;97590;;;;
2023/01/19 07:52:54;;;;;;;17.2;11.7;;;;;;;2.5;85.8;97570;;;;
2023/01/19 08:02:54;;;;;;;17.2;11.7;;;;;;;2.2;86.7;97580;;;;
2023/01/19 08:12:54;;;;;;;19.9;11.4;;;;;;;2.2;87.5;97610;;;;
2023/01/19 08:23:54;;;;;;;19.9;11.4;;;;;;;2.5;87.5;97630;;;;
2023/01/19 08:34:54;;;;;;;19.9;11.4;;;;;;;2.7;87.4;97620;;;;
2023/01/19 08:44:54;;;;;;;19;11;;;;;;;2.8;86.7;97620;;;;
2023/01/19 08:54:54;;;;;;;19;11;;;;;;;2.8;86.1;97620;;;;
2023/01/19 09:04:54;;;;;;;19;11;;;;;;;2.9;85.7;97590;;;;
2023/01/19 09:14:54;;;;;;;22.1;14.4;;;;;;;2.8;85.6;97610;;;;
2023/01/19 09:24:54;;;;;;;22.1;14.4;;;;;;;2.8;85.8;97630;;;;
2023/01/19 09:34:55;;;;;;;22.1;14.4;;;;;;;3;85.7;97630;;;;
2023/01/19 09:45:55;;;;;;;28;16.4;;;;;;;2.9;85.5;97620;;;;
2023/01/19 09:55:54;;;;;;;28;16.4;;;;;;;2.9;85.3;97610;;;;
2023/01/19 10:06:55;;;;;;;26.7;16.8;;;;;;;2.8;85.4;97620;;;;
2023/01/19 10:17:54;;;;;;;26.7;16.8;;;;;;;2.9;85.8;97600;;;;
2023/01/19 10:27:54;;;;;;;26.7;16.8;;;;;;;3.1;85.5;97580;;;;
2023/01/19 10:37:54;;;;;;;27.8;17.4;;;;;;;3.2;85.3;97570;;;;
2023/01/19 10:48:54;;;;;;;27.8;17.4;;;;;;;3.3;84.7;97570;;;;
2023/01/19 10:58:54;;;;;;;27.8;17.4;;;;;;;3.2;84.3;97580;;;;
2023/01/19 11:09:54;;;;;;;27.4;19;;;;;;;3.3;84.9;97570;;;;
2023/01/19 11:19:54;;;;;;;27.4;19;;;;;;;3.3;84.7;97550;;;;
2023/01/19 11:29:54;;;;;;;27.4;19;;;;;;;3.4;84.3;97540;;;;
2023/01/19 11:40:54;;;;;;;25.4;18.4;;;;;;;3.2;83.9;97540;;;;
2023/01/19 11:51:54;;;;;;;25.4;18.4;;;;;;;3.1;84.9;97550;;;;
2023/01/19 12:01:56;;;;;;;25.4;18.4;;;;;;;3.1;85;97540;;;;
2023/01/19 12:12:54;;;;;;;31.1;22.1;;;;;;;3.2;84.8;97530;;;;
2023/01/19 12:22:54;;;;;;;31.1;22.1;;;;;;;3;85;97540;;;;
2023/01/19 12:32:54;;;;;;;31.1;22.1;;;;;;;2.9;85.3;97560;;;;
2023/01/19 12:42:54;;;;;;;31.6;22.8;;;;;;;2.8;85.7;97560;;;;
2023/01/19 12:52:56;;;;;;;31.6;22.8;;;;;;;2.8;86;97560;;;;
2023/01/19 13:03:54;;;;;;;31.6;22.8;;;;;;;2.7;86;97550;;;;
2023/01/19 13:13:54;;;;;;;42.1;28.1;;;;;;;2.6;86.3;97560;;;;
2023/01/19 13:24:54;;;;;;;42.1;28.1;;;;;;;2.8;86.3;97570;;;;
2023/01/19 13:34:56;;;;;;;42.1;28.1;;;;;;;2.6;86.1;97580;;;;
2023/01/19 13:45:54;;;;;;;51.9;31.6;;;;;;;2.4;86.7;97600;;;;
2023/01/19 13:55:54;;;;;;;51.9;31.6;;;;;;;2.4;87;97620;;;;
2023/01/19 14:05:54;;;;;;;49.3;30.4;;;;;;;2.3;86.9;97630;;;;
2023/01/19 14:16:54;;;;;;;49.3;30.4;;;;;;;2.3;87.4;97640;;;;
2023/01/19 14:27:54;;;;;;;49.3;30.4;;;;;;;2.2;87.2;97640;;;;
2023/01/19 14:37:54;;;;;;;45;27.2;;;;;;;2.1;87.5;97650;;;;
2023/01/19 14:47:54;;;;;;;45;27.2;;;;;;;2;87.7;97650;;;;
2023/01/19 14:58:54;;;;;;;45;27.2;;;;;;;1.9;87.9;97660;;;;
2023/01/19 15:08:54;;;;;;;53.3;29.8;;;;;;;2;88;97680;;;;
2023/01/19 15:19:54;;;;;;;53.3;29.8;;;;;;;2;88.3;97680;;;;
2023/01/19 15:30:56;;;;;;;53.3;29.8;;;;;;;2;88.2;97690;;;;
2023/01/19 15:41:54;;;;;;;52.9;30.1;;;;;;;2.1;88.2;97700;;;;
2023/01/19 15:52:54;;;;;;;52.9;30.1;;;;;;;2;88;97700;;;;
2023/01/19 16:03:55;;;;;;;52.9;30.1;;;;;;;2.1;88.2;97710;;;;
2023/01/19 16:14:54;;;;;;;52.2;29.5;;;;;;;2;88;97710;;;;
2023/01/19 16:24:55;;;;;;;52.2;29.5;;;;;;;2;88.2;97720;;;;
2023/01/19 16:35:54;;;;;;;41.8;25.6;;;;;;;2;88.3;97720;;;;
2023/01/19 16:45:54;;;;;;;41.8;25.6;;;;;;;2;88;97730;;;;
2023/01/19 16:55:54;;;;;;;41.8;25.6;;;;;;;2;88;97730;;;;
2023/01/19 17:06:54;;;;;;;29.7;19.8;;;;;;;1.9;88.2;97740;;;;
2023/01/19 17:16:54;;;;;;;29.7;19.8;;;;;;;1.8;88.4;97750;;;;
2023/01/19 17:27:54;;;;;;;29.7;19.8;;;;;;;1.7;89;97760;;;;
2023/01/19 17:37:55;;;;;;;30.8;20.8;;;;;;;1.7;89;97770;;;;
2023/01/19 17:48:54;;;;;;;30.8;20.8;;;;;;;1.7;89.1;97770;;;;
2023/01/19 17:59:54;;;;;;;30.8;20.8;;;;;;;1.7;89;97770;;;;
2023/01/19 18:09:55;;;;;;;35.6;21.1;;;;;;;1.8;89;97770;;;;
2023/01/19 18:20:54;;;;;;;35.6;21.1;;;;;;;1.8;89.1;97770;;;;
2023/01/19 18:30:54;;;;;;;35.6;21.1;;;;;;;1.7;89;97780;;;;
2023/01/19 18:40:54;;;;;;;33.6;20.1;;;;;;;1.8;89;97790;;;;
2023/01/19 18:51:55;;;;;;;33.6;20.1;;;;;;;1.7;88.9;97770;;;;
2023/01/19 19:02:56;;;;;;;33.6;20.1;;;;;;;1.5;89.3;97780;;;;
2023/01/19 19:13:54;;;;;;;32.9;20.4;;;;;;;1.5;89.5;97810;;;;
2023/01/19 19:24:55;;;;;;;32.9;20.4;;;;;;;1.4;89.9;97840;;;;
2023/01/19 19:35:54;;;;;;;41.3;22.5;;;;;;;1.2;90.2;97840;;;;
2023/01/19 19:45:54;;;;;;;41.3;22.5;;;;;;;1.4;90.2;97870;;;;
2023/01/19 19:55:55;;;;;;;41.3;22.5;;;;;;;1.3;90.2;97880;;;;
2023/01/19 20:05:54;;;;;;;34.4;19.4;;;;;;;1.3;90.1;97910;;;;
2023/01/19 20:15:55;;;;;;;34.4;19.4;;;;;;;1.4;90.2;97920;;;;
2023/01/19 20:26:56;;;;;;;34.4;19.4;;;;;;;1.3;90.2;97950;;;;
2023/01/19 20:37:54;;;;;;;26.5;15.4;;;;;;;1.3;90.3;97960;;;;
2023/01/19 20:47:54;;;;;;;26.5;15.4;;;;;;;1.4;90.2;97960;;;;
2023/01/19 20:57:55;;;;;;;26.5;15.4;;;;;;;1.3;90.1;97960;;;;
2023/01/19 21:08:56;;;;;;;29.8;18.5;;;;;;;1.2;90.5;97950;;;;
2023/01/19 21:18:54;;;;;;;29.8;18.5;;;;;;;1.3;90.4;97970;;;;
2023/01/19 21:29:54;;;;;;;29.8;18.5;;;;;;;1.2;90.4;97990;;;;
2023/01/19 21:40:54;;;;;;;48.5;24.7;;;;;;;1.1;90.6;98020;;;;
2023/01/19 21:50:54;;;;;;;48.5;24.7;;;;;;;0.9;90.8;98030;;;;
2023/01/19 22:00:55;;;;;;;48.5;24.7;;;;;;;1;90.9;98020;;;;
2023/01/19 22:10:54;;;;;;;34.2;21.9;;;;;;;1;90.8;98040;;;;
2023/01/19 22:20:54;;;;;;;34.2;21.9;;;;;;;1;90.8;98050;;;;
2023/01/19 22:30:54;;;;;;;34.2;21.9;;;;;;;1.1;90.8;98060;;;;
2023/01/19 22:41:54;;;;;;;34;18.7;;;;;;;1.2;90.7;98070;;;;
2023/01/19 22:51:56;;;;;;;34;18.7;;;;;;;1.2;90.5;98070;;;;
2023/01/19 23:02:54;;;;;;;34;18.7;;;;;;;1;90.3;98080;;;;
2023/01/19 23:12:54;;;;;;;31.4;18.5;;;;;;;1.1;90.3;98100;;;;
2023/01/19 23:23:55;;;;;;;31.4;18.5;;;;;;;1.1;90.2;98110;;;;
2023/01/19 23:34:54;;;;;;;26.7;15.9;;;;;;;1.2;90.1;98100;;;;
2023/01/19 23:44:55;;;;;;;26.7;15.9;;;;;;;1.1;89.8;98110;;;;
2023/01/19 23:54:55;;;;;;;26.7;15.9;;;;;;;1.1;89.6;98120;;;;
